Plymouth, Vermont
Current Conditions -  °F | °C
As of 10:15 AM on Wednesday 22 Oct 2014 (Local Time) from KRUT Reporting Station
Overcast Overcast  
Wind Chill: 44°   Ceiling: 2200
Heat Index: 46°   Visibility: 10mi
Dew Point: 45°   Wind: 6mph
Humidity: 93%   Direction: 280°W
Pressure: 30.12"   Gusts: NA
Location:  43.54°N, 72.72°W
Report Text: KRUT 221415Z 28005KT 10SM FEW016 OVC022 08/07 A3012 RMK AO1
Loading
Personal Weather Stations






























Interactive Weather Map
Tropical Storm Tracking
New forecast layout! Learn more

10-Day Weather Forecast

Advertisements
Track Severe Weather on mobile